Malone, Texas
Current Conditions -  °F | °C
As of 2:15 AM on Thursday 29 Jan 2015 (Local Time) from KINJ Reporting Station
Scattered Clouds Scattered Clouds  
Wind Chill: 12°   Ceiling: Unl
Heat Index: 12°   Visibility: 10mi
Dew Point:   Wind: 7mph
Humidity: 69%   Direction: 170°S
Pressure: 30.1"   Gusts: NA
Location:  31.92°N, 96.89°W
Report Text: KINJ 290815Z AUTO 17006KT 10SM SCT095 12/06 A3010 RMK AO2 T01160061
Loading
Personal Weather Stations






























Interactive Weather Map New forecast layout! Learn more

10-Day Weather Forecast

Advertisements
Track Severe Weather on mobile